sensor_id;sensor_type;location;lat;lon;timestamp;temperature;humidity
31759;DHT22;36334;51.366;0.020;2022-12-17T00:00:24;-3.80;99.90
31759;DHT22;36334;51.366;0.020;2022-12-17T00:03:29;-3.80;99.90
31759;DHT22;36334;51.366;0.020;2022-12-17T00:06:34;-3.80;99.90
31759;DHT22;36334;51.366;0.020;2022-12-17T00:09:41;-3.80;99.90
31759;DHT22;36334;51.366;0.020;2022-12-17T00:12:49;-3.80;99.90
31759;DHT22;36334;51.366;0.020;2022-12-17T00:15:57;-3.80;99.90
31759;DHT22;36334;51.366;0.020;2022-12-17T00:19:01;-3.80;99.90
31759;DHT22;36334;51.366;0.020;2022-12-17T00:22:08;-3.80;99.90
31759;DHT22;36334;51.366;0.020;2022-12-17T00:25:13;-3.70;99.90
31759;DHT22;36334;51.366;0.020;2022-12-17T00:28:17;-3.80;99.90
31759;DHT22;36334;51.366;0.020;2022-12-17T00:31:21;-3.80;99.90
31759;DHT22;36334;51.366;0.020;2022-12-17T00:34:27;-3.80;99.90
31759;DHT22;36334;51.366;0.020;2022-12-17T00:37:31;-3.80;99.90
31759;DHT22;36334;51.366;0.020;2022-12-17T00:40:37;-3.80;99.90
31759;DHT22;36334;51.366;0.020;2022-12-17T00:43:41;-3.90;99.90
31759;DHT22;36334;51.366;0.020;2022-12-17T00:46:45;-3.80;99.90
31759;DHT22;36334;51.366;0.020;2022-12-17T00:49:50;-3.80;99.90
31759;DHT22;36334;51.366;0.020;2022-12-17T00:52:54;-3.70;99.90
31759;DHT22;36334;51.366;0.020;2022-12-17T00:55:59;-3.70;99.90
31759;DHT22;36334;51.366;0.020;2022-12-17T00:59:03;-3.70;99.90
31759;DHT22;36334;51.366;0.020;2022-12-17T01:02:08;-3.70;99.90
31759;DHT22;36334;51.366;0.020;2022-12-17T01:05:13;-3.70;99.90
31759;DHT22;36334;51.366;0.020;2022-12-17T01:08:17;-3.70;99.90
31759;DHT22;36334;51.366;0.020;2022-12-17T01:11:22;-3.70;99.90
31759;DHT22;36334;51.366;0.020;2022-12-17T01:14:26;-3.70;99.90
31759;DHT22;36334;51.366;0.020;2022-12-17T01:17:31;-3.70;99.90
31759;DHT22;36334;51.366;0.020;2022-12-17T01:20:36;-3.70;99.90
31759;DHT22;36334;51.366;0.020;2022-12-17T01:23:41;-3.70;99.90
31759;DHT22;36334;51.366;0.020;2022-12-17T01:26:46;-3.60;99.90
31759;DHT22;36334;51.366;0.020;2022-12-17T01:29:51;-3.60;99.90
31759;DHT22;36334;51.366;0.020;2022-12-17T01:33:04;-3.60;99.90
31759;DHT22;36334;51.366;0.020;2022-12-17T01:36:08;-3.50;99.90
31759;DHT22;36334;51.366;0.020;2022-12-17T01:39:14;-3.60;99.90
31759;DHT22;36334;51.366;0.020;2022-12-17T01:42:19;-3.60;99.90
31759;DHT22;36334;51.366;0.020;2022-12-17T01:45:24;-3.60;99.90
31759;DHT22;36334;51.366;0.020;2022-12-17T01:48:38;-3.60;99.90
31759;DHT22;36334;51.366;0.020;2022-12-17T01:51:44;-3.60;99.90
31759;DHT22;36334;51.366;0.020;2022-12-17T01:54:48;-3.60;99.90
31759;DHT22;36334;51.366;0.020;2022-12-17T01:57:54;-3.60;99.90
31759;DHT22;36334;51.366;0.020;2022-12-17T02:00:59;-3.60;99.90
31759;DHT22;36334;51.366;0.020;2022-12-17T02:04:05;-3.70;99.90
31759;DHT22;36334;51.366;0.020;2022-12-17T02:14:07;-3.70;99.90
31759;DHT22;36334;51.366;0.020;2022-12-17T02:17:17;-3.70;99.90
31759;DHT22;36334;51.366;0.020;2022-12-17T02:20:37;-3.70;99.90
31759;DHT22;36334;51.366;0.020;2022-12-17T02:24:19;-3.60;99.90
31759;DHT22;36334;51.366;0.020;2022-12-17T02:27:29;-3.50;99.90
31759;DHT22;36334;51.366;0.020;2022-12-17T02:30:35;-3.50;99.90
31759;DHT22;36334;51.366;0.020;2022-12-17T02:33:41;-3.50;99.90
31759;DHT22;36334;51.366;0.020;2022-12-17T02:36:50;-3.50;99.90
31759;DHT22;36334;51.366;0.020;2022-12-17T02:39:56;-3.50;99.90
31759;DHT22;36334;51.366;0.020;2022-12-17T02:43:03;-3.50;99.90
31759;DHT22;36334;51.366;0.020;2022-12-17T02:46:09;-3.60;99.90
31759;DHT22;36334;51.366;0.020;2022-12-17T02:49:14;-3.60;99.90
31759;DHT22;36334;51.366;0.020;2022-12-17T02:52:26;-3.60;99.90
31759;DHT22;36334;51.366;0.020;2022-12-17T02:55:31;-3.60;99.90
31759;DHT22;36334;51.366;0.020;2022-12-17T02:58:35;-3.60;99.90
31759;DHT22;36334;51.366;0.020;2022-12-17T03:01:40;-3.60;99.90
31759;DHT22;36334;51.366;0.020;2022-12-17T03:04:45;-3.60;99.90
31759;DHT22;36334;51.366;0.020;2022-12-17T03:08:10;-3.60;99.90
31759;DHT22;36334;51.366;0.020;2022-12-17T03:11:14;-3.60;99.90
31759;DHT22;36334;51.366;0.020;2022-12-17T03:14:20;-3.60;99.90
31759;DHT22;36334;51.366;0.020;2022-12-17T03:17:29;-3.50;99.90
31759;DHT22;36334;51.366;0.020;2022-12-17T03:20:34;-3.50;99.90
31759;DHT22;36334;51.366;0.020;2022-12-17T03:23:38;-3.50;99.90
31759;DHT22;36334;51.366;0.020;2022-12-17T03:26:43;-3.40;99.90
31759;DHT22;36334;51.366;0.020;2022-12-17T03:29:47;-3.30;99.90
31759;DHT22;36334;51.366;0.020;2022-12-17T03:32:52;-3.40;99.90
31759;DHT22;36334;51.366;0.020;2022-12-17T03:35:56;-3.50;99.90
31759;DHT22;36334;51.366;0.020;2022-12-17T03:39:01;-3.30;99.90
31759;DHT22;36334;51.366;0.020;2022-12-17T03:42:06;-3.40;99.90
31759;DHT22;36334;51.366;0.020;2022-12-17T03:45:11;-3.30;99.90
31759;DHT22;36334;51.366;0.020;2022-12-17T03:48:15;-3.30;99.90
31759;DHT22;36334;51.366;0.020;2022-12-17T03:51:20;-3.30;99.90
31759;DHT22;36334;51.366;0.020;2022-12-17T03:54:25;-3.40;99.90
31759;DHT22;36334;51.366;0.020;2022-12-17T03:57:29;-3.40;99.90
31759;DHT22;36334;51.366;0.020;2022-12-17T04:00:34;-3.40;99.90
31759;DHT22;36334;51.366;0.020;2022-12-17T04:03:38;-3.40;99.90
31759;DHT22;36334;51.366;0.020;2022-12-17T04:06:42;-3.40;99.90
31759;DHT22;36334;51.366;0.020;2022-12-17T04:09:47;-3.40;99.90
31759;DHT22;36334;51.366;0.020;2022-12-17T04:13:08;-3.40;99.90
31759;DHT22;36334;51.366;0.020;2022-12-17T04:16:15;-3.30;99.90
31759;DHT22;36334;51.366;0.020;2022-12-17T04:19:20;-3.30;99.90
31759;DHT22;36334;51.366;0.020;2022-12-17T04:22:24;-3.20;99.90
31759;DHT22;36334;51.366;0.020;2022-12-17T04:25:29;-3.30;99.90
31759;DHT22;36334;51.366;0.020;2022-12-17T04:28:33;-3.20;99.90
31759;DHT22;36334;51.366;0.020;2022-12-17T04:31:38;-3.20;99.90
31759;DHT22;36334;51.366;0.020;2022-12-17T04:34:42;-3.20;99.90
31759;DHT22;36334;51.366;0.020;2022-12-17T04:37:48;-3.20;99.90
31759;DHT22;36334;51.366;0.020;2022-12-17T04:40:52;-3.20;99.90
31759;DHT22;36334;51.366;0.020;2022-12-17T04:43:57;-3.30;99.90
31759;DHT22;36334;51.366;0.020;2022-12-17T04:47:02;-3.20;99.90
31759;DHT22;36334;51.366;0.020;2022-12-17T04:50:06;-3.20;99.90
31759;DHT22;36334;51.366;0.020;2022-12-17T04:53:10;-3.20;99.90
31759;DHT22;36334;51.366;0.020;2022-12-17T04:56:15;-3.20;99.90
31759;DHT22;36334;51.366;0.020;2022-12-17T04:59:19;-3.20;99.90
31759;DHT22;36334;51.366;0.020;2022-12-17T05:02:24;-3.10;99.90
31759;DHT22;36334;51.366;0.020;2022-12-17T05:05:29;-3.10;99.90
31759;DHT22;36334;51.366;0.020;2022-12-17T05:08:33;-3.10;99.90
31759;DHT22;36334;51.366;0.020;2022-12-17T05:11:38;-3.10;99.90
31759;DHT22;36334;51.366;0.020;2022-12-17T05:14:45;-3.00;99.90
31759;DHT22;36334;51.366;0.020;2022-12-17T05:17:50;-3.00;99.90
31759;DHT22;36334;51.366;0.020;2022-12-17T05:20:55;-3.00;99.90
31759;DHT22;36334;51.366;0.020;2022-12-17T05:24:00;-2.90;99.90
31759;DHT22;36334;51.366;0.020;2022-12-17T05:27:05;-2.90;99.90
31759;DHT22;36334;51.366;0.020;2022-12-17T05:30:09;-2.90;99.90
31759;DHT22;36334;51.366;0.020;2022-12-17T05:33:14;-2.80;99.90
31759;DHT22;36334;51.366;0.020;2022-12-17T05:36:20;-2.80;99.90
31759;DHT22;36334;51.366;0.020;2022-12-17T05:39:24;-2.80;99.90
31759;DHT22;36334;51.366;0.020;2022-12-17T05:42:29;-2.80;99.90
31759;DHT22;36334;51.366;0.020;2022-12-17T05:45:33;-2.80;99.90
31759;DHT22;36334;51.366;0.020;2022-12-17T05:48:37;-2.70;99.90
31759;DHT22;36334;51.366;0.020;2022-12-17T05:51:42;-2.70;99.90
31759;DHT22;36334;51.366;0.020;2022-12-17T05:54:46;-2.80;99.90
31759;DHT22;36334;51.366;0.020;2022-12-17T05:57:51;-2.70;99.90
31759;DHT22;36334;51.366;0.020;2022-12-17T06:00:59;-2.70;99.90
31759;DHT22;36334;51.366;0.020;2022-12-17T06:04:03;-2.70;99.90
31759;DHT22;36334;51.366;0.020;2022-12-17T06:07:08;-2.70;99.90
31759;DHT22;36334;51.366;0.020;2022-12-17T06:10:12;-2.60;99.90
31759;DHT22;36334;51.366;0.020;2022-12-17T06:13:17;-2.50;99.90
31759;DHT22;36334;51.366;0.020;2022-12-17T06:16:22;-2.50;99.90
31759;DHT22;36334;51.366;0.020;2022-12-17T06:19:27;-2.50;99.90
31759;DHT22;36334;51.366;0.020;2022-12-17T06:22:34;-2.50;99.90
31759;DHT22;36334;51.366;0.020;2022-12-17T06:25:39;-2.50;99.90
31759;DHT22;36334;51.366;0.020;2022-12-17T06:28:43;-2.50;99.90
31759;DHT22;36334;51.366;0.020;2022-12-17T06:31:47;-2.60;99.90
31759;DHT22;36334;51.366;0.020;2022-12-17T06:34:52;-2.60;99.90
31759;DHT22;36334;51.366;0.020;2022-12-17T06:37:58;-2.60;99.90
31759;DHT22;36334;51.366;0.020;2022-12-17T06:41:03;-2.60;99.90
31759;DHT22;36334;51.366;0.020;2022-12-17T06:44:07;-2.60;99.90
31759;DHT22;36334;51.366;0.020;2022-12-17T06:47:11;-2.50;99.90
31759;DHT22;36334;51.366;0.020;2022-12-17T06:50:16;-2.40;99.90
31759;DHT22;36334;51.366;0.020;2022-12-17T06:53:20;-2.30;99.90
31759;DHT22;36334;51.366;0.020;2022-12-17T06:56:27;-2.20;99.90
31759;DHT22;36334;51.366;0.020;2022-12-17T06:59:32;-2.20;99.90
31759;DHT22;36334;51.366;0.020;2022-12-17T07:02:36;-2.10;99.90
31759;DHT22;36334;51.366;0.020;2022-12-17T07:05:42;-2.10;99.90
31759;DHT22;36334;51.366;0.020;2022-12-17T07:08:46;-2.10;99.90
31759;DHT22;36334;51.366;0.020;2022-12-17T07:11:51;-2.00;99.90
31759;DHT22;36334;51.366;0.020;2022-12-17T07:14:56;-1.90;99.90
31759;DHT22;36334;51.366;0.020;2022-12-17T07:18:02;-1.90;99.90
31759;DHT22;36334;51.366;0.020;2022-12-17T07:21:07;-1.80;99.90
31759;DHT22;36334;51.366;0.020;2022-12-17T07:24:11;-1.80;99.90
31759;DHT22;36334;51.366;0.020;2022-12-17T07:27:16;-1.70;99.90
31759;DHT22;36334;51.366;0.020;2022-12-17T07:30:24;-1.70;99.90
31759;DHT22;36334;51.366;0.020;2022-12-17T07:33:28;-1.70;99.90
31759;DHT22;36334;51.366;0.020;2022-12-17T07:36:35;-1.60;99.90
31759;DHT22;36334;51.366;0.020;2022-12-17T07:39:39;-1.50;99.90
31759;DHT22;36334;51.366;0.020;2022-12-17T07:42:44;-1.50;99.90
31759;DHT22;36334;51.366;0.020;2022-12-17T07:45:48;-1.40;99.90
31759;DHT22;36334;51.366;0.020;2022-12-17T07:48:53;-1.30;99.90
31759;DHT22;36334;51.366;0.020;2022-12-17T07:51:59;-1.30;99.90
31759;DHT22;36334;51.366;0.020;2022-12-17T07:55:04;-1.30;99.90
31759;DHT22;36334;51.366;0.020;2022-12-17T07:58:10;-1.30;99.90
31759;DHT22;36334;51.366;0.020;2022-12-17T08:01:14;-1.20;99.90
31759;DHT22;36334;51.366;0.020;2022-12-17T08:04:19;-1.20;99.90
31759;DHT22;36334;51.366;0.020;2022-12-17T08:07:24;-1.20;99.90
31759;DHT22;36334;51.366;0.020;2022-12-17T08:10:29;-1.10;99.90
31759;DHT22;36334;51.366;0.020;2022-12-17T08:13:33;-1.00;99.90
31759;DHT22;36334;51.366;0.020;2022-12-17T08:16:38;-1.00;99.90
31759;DHT22;36334;51.366;0.020;2022-12-17T08:19:43;-0.90;99.90
31759;DHT22;36334;51.366;0.020;2022-12-17T08:22:48;-0.90;99.90
31759;DHT22;36334;51.366;0.020;2022-12-17T08:25:55;-0.80;99.90
31759;DHT22;36334;51.366;0.020;2022-12-17T08:29:00;-0.70;99.90
31759;DHT22;36334;51.366;0.020;2022-12-17T08:32:04;-0.60;99.90
31759;DHT22;36334;51.366;0.020;2022-12-17T08:35:08;-0.70;99.90
31759;DHT22;36334;51.366;0.020;2022-12-17T08:38:13;-0.70;99.90
31759;DHT22;36334;51.366;0.020;2022-12-17T08:41:18;-0.60;99.90
31759;DHT22;36334;51.366;0.020;2022-12-17T08:44:22;-0.40;99.90
31759;DHT22;36334;51.366;0.020;2022-12-17T08:47:27;-0.60;99.90
31759;DHT22;36334;51.366;0.020;2022-12-17T08:50:31;-0.50;99.90
31759;DHT22;36334;51.366;0.020;2022-12-17T08:53:36;-0.50;99.90
31759;DHT22;36334;51.366;0.020;2022-12-17T08:56:40;-0.50;99.90
31759;DHT22;36334;51.366;0.020;2022-12-17T08:59:45;-0.40;99.90
31759;DHT22;36334;51.366;0.020;2022-12-17T09:02:58;-0.40;99.90
31759;DHT22;36334;51.366;0.020;2022-12-17T09:06:03;-0.30;99.90
31759;DHT22;36334;51.366;0.020;2022-12-17T09:09:08;-0.30;99.90
31759;DHT22;36334;51.366;0.020;2022-12-17T09:12:12;-0.20;99.90
31759;DHT22;36334;51.366;0.020;2022-12-17T09:15:17;-0.10;99.90
31759;DHT22;36334;51.366;0.020;2022-12-17T09:18:22;0.00;99.90
31759;DHT22;36334;51.366;0.020;2022-12-17T09:21:30;0.10;99.90
31759;DHT22;36334;51.366;0.020;2022-12-17T09:24:36;0.10;99.90
31759;DHT22;36334;51.366;0.020;2022-12-17T09:27:43;0.20;99.90
31759;DHT22;36334;51.366;0.020;2022-12-17T09:30:48;0.30;99.90
31759;DHT22;36334;51.366;0.020;2022-12-17T09:33:53;0.30;99.90
31759;DHT22;36334;51.366;0.020;2022-12-17T09:36:57;0.40;99.90
31759;DHT22;36334;51.366;0.020;2022-12-17T09:40:02;0.50;99.90
31759;DHT22;36334;51.366;0.020;2022-12-17T09:46:49;0.70;99.90
31759;DHT22;36334;51.366;0.020;2022-12-17T09:50:07;0.90;99.90
31759;DHT22;36334;51.366;0.020;2022-12-17T09:53:21;1.00;99.90
31759;DHT22;36334;51.366;0.020;2022-12-17T09:56:29;1.10;99.90
31759;DHT22;36334;51.366;0.020;2022-12-17T09:59:35;1.20;99.90
31759;DHT22;36334;51.366;0.020;2022-12-17T10:02:40;1.30;99.90
31759;DHT22;36334;51.366;0.020;2022-12-17T10:05:45;1.50;99.90
31759;DHT22;36334;51.366;0.020;2022-12-17T10:08:56;1.60;99.90
31759;DHT22;36334;51.366;0.020;2022-12-17T10:12:16;1.80;99.90
31759;DHT22;36334;51.366;0.020;2022-12-17T10:15:23;2.20;99.90
31759;DHT22;36334;51.366;0.020;2022-12-17T10:18:27;2.20;99.90
31759;DHT22;36334;51.366;0.020;2022-12-17T10:21:33;2.30;99.90
31759;DHT22;36334;51.366;0.020;2022-12-17T10:24:44;2.40;99.90
31759;DHT22;36334;51.366;0.020;2022-12-17T10:27:49;2.50;99.90
31759;DHT22;36334;51.366;0.020;2022-12-17T10:30:53;2.70;99.90
31759;DHT22;36334;51.366;0.020;2022-12-17T10:33:58;2.80;99.90
31759;DHT22;36334;51.366;0.020;2022-12-17T10:37:04;2.80;99.90
31759;DHT22;36334;51.366;0.020;2022-12-17T10:40:32;2.90;99.90
31759;DHT22;36334;51.366;0.020;2022-12-17T10:43:38;3.50;99.90
31759;DHT22;36334;51.366;0.020;2022-12-17T10:46:43;3.20;99.90
31759;DHT22;36334;51.366;0.020;2022-12-17T10:49:56;3.40;99.90
31759;DHT22;36334;51.366;0.020;2022-12-17T10:53:21;3.80;99.90
31759;DHT22;36334;51.366;0.020;2022-12-17T10:56:27;3.60;99.90
31759;DHT22;36334;51.366;0.020;2022-12-17T10:59:36;3.70;99.90
31759;DHT22;36334;51.366;0.020;2022-12-17T11:02:46;3.80;99.90
31759;DHT22;36334;51.366;0.020;2022-12-17T11:06:09;4.00;99.90
31759;DHT22;36334;51.366;0.020;2022-12-17T11:09:42;4.20;99.90
31759;DHT22;36334;51.366;0.020;2022-12-17T11:13:02;4.40;99.90
31759;DHT22;36334;51.366;0.020;2022-12-17T11:19:50;4.60;99.90
31759;DHT22;36334;51.366;0.020;2022-12-17T11:22:58;4.80;99.90
31759;DHT22;36334;51.366;0.020;2022-12-17T11:26:12;4.90;99.90
31759;DHT22;36334;51.366;0.020;2022-12-17T11:29:18;5.00;99.90
31759;DHT22;36334;51.366;0.020;2022-12-17T11:32:38;5.10;99.90
31759;DHT22;36334;51.366;0.020;2022-12-17T11:36:16;5.10;99.90
31759;DHT22;36334;51.366;0.020;2022-12-17T11:39:57;5.10;99.90
31759;DHT22;36334;51.366;0.020;2022-12-17T11:43:14;5.00;99.90
31759;DHT22;36334;51.366;0.020;2022-12-17T11:46:46;4.90;99.90
31759;DHT22;36334;51.366;0.020;2022-12-17T11:50:25;4.80;99.90
31759;DHT22;36334;51.366;0.020;2022-12-17T12:10:03;4.80;99.90
31759;DHT22;36334;51.366;0.020;2022-12-17T12:16:55;4.80;99.90
31759;DHT22;36334;51.366;0.020;2022-12-17T12:23:25;4.80;99.90
31759;DHT22;36334;51.366;0.020;2022-12-17T12:30:14;4.80;99.90
31759;DHT22;36334;51.366;0.020;2022-12-17T12:34:07;4.80;99.90
31759;DHT22;36334;51.366;0.020;2022-12-17T12:36:50;4.80;99.90
31759;DHT22;36334;51.366;0.020;2022-12-17T12:46:56;4.90;99.90
31759;DHT22;36334;51.366;0.020;2022-12-17T12:50:11;4.90;99.90
31759;DHT22;36334;51.366;0.020;2022-12-17T12:53:21;5.10;99.90
31759;DHT22;36334;51.366;0.020;2022-12-17T12:56:36;5.00;99.90
31759;DHT22;36334;51.366;0.020;2022-12-17T12:59:47;5.00;99.90
31759;DHT22;36334;51.366;0.020;2022-12-17T13:02:52;5.00;99.90
31759;DHT22;36334;51.366;0.020;2022-12-17T13:05:57;5.00;99.90
31759;DHT22;36334;51.366;0.020;2022-12-17T13:08:43;5.00;99.90
31759;DHT22;36334;51.366;0.020;2022-12-17T13:11:36;5.00;99.90
31759;DHT22;36334;51.366;0.020;2022-12-17T13:14:27;5.00;99.90
31759;DHT22;36334;51.366;0.020;2022-12-17T13:20:19;5.00;99.90
31759;DHT22;36334;51.366;0.020;2022-12-17T13:23:27;5.00;99.90
31759;DHT22;36334;51.366;0.020;2022-12-17T13:26:29;5.00;99.90
31759;DHT22;36334;51.366;0.020;2022-12-17T13:32:22;5.00;99.90
31759;DHT22;36334;51.366;0.020;2022-12-17T13:41:31;5.10;99.90
31759;DHT22;36334;51.366;0.020;2022-12-17T13:44:37;5.20;99.90
31759;DHT22;36334;51.366;0.020;2022-12-17T13:47:43;5.20;99.90
31759;DHT22;36334;51.366;0.020;2022-12-17T13:50:29;5.30;99.90
31759;DHT22;36334;51.366;0.020;2022-12-17T13:53:20;5.20;99.90
31759;DHT22;36334;51.366;0.020;2022-12-17T13:56:09;5.20;99.90
31759;DHT22;36334;51.366;0.020;2022-12-17T13:58:56;5.30;99.90
31759;DHT22;36334;51.366;0.020;2022-12-17T14:01:50;5.30;99.90
31759;DHT22;36334;51.366;0.020;2022-12-17T14:04:37;5.30;99.90
31759;DHT22;36334;51.366;0.020;2022-12-17T14:07:26;5.30;99.90
31759;DHT22;36334;51.366;0.020;2022-12-17T14:10:16;5.30;99.90
31759;DHT22;36334;51.366;0.020;2022-12-17T14:13:08;5.20;99.90
31759;DHT22;36334;51.366;0.020;2022-12-17T14:15:58;5.20;99.90
31759;DHT22;36334;51.366;0.020;2022-12-17T14:18:53;5.20;99.90
31759;DHT22;36334;51.366;0.020;2022-12-17T14:21:42;5.20;99.90
31759;DHT22;36334;51.366;0.020;2022-12-17T14:24:32;5.20;99.90
31759;DHT22;36334;51.366;0.020;2022-12-17T14:27:32;5.10;99.90
31759;DHT22;36334;51.366;0.020;2022-12-17T14:30:29;5.10;99.90
31759;DHT22;36334;51.366;0.020;2022-12-17T14:33:29;5.10;99.90
31759;DHT22;36334;51.366;0.020;2022-12-17T14:36:20;5.10;99.90
31759;DHT22;36334;51.366;0.020;2022-12-17T14:39:28;5.10;99.90
31759;DHT22;36334;51.366;0.020;2022-12-17T14:42:24;5.00;99.90
31759;DHT22;36334;51.366;0.020;2022-12-17T14:48:01;5.10;99.90
31759;DHT22;36334;51.366;0.020;2022-12-17T14:50:54;5.10;99.90
31759;DHT22;36334;51.366;0.020;2022-12-17T14:53:42;5.10;99.90
31759;DHT22;36334;51.366;0.020;2022-12-17T14:56:28;5.00;99.90
31759;DHT22;36334;51.366;0.020;2022-12-17T14:59:21;5.10;99.90
31759;DHT22;36334;51.366;0.020;2022-12-17T15:05:00;5.00;99.90
31759;DHT22;36334;51.366;0.020;2022-12-17T15:07:46;5.10;99.90
31759;DHT22;36334;51.366;0.020;2022-12-17T15:10:32;5.10;99.90
31759;DHT22;36334;51.366;0.020;2022-12-17T15:13:21;5.10;99.90
31759;DHT22;36334;51.366;0.020;2022-12-17T15:16:07;5.10;99.90
31759;DHT22;36334;51.366;0.020;2022-12-17T15:18:54;5.30;99.90
31759;DHT22;36334;51.366;0.020;2022-12-17T15:21:40;5.20;99.90
31759;DHT22;36334;51.366;0.020;2022-12-17T15:24:27;5.00;99.90
31759;DHT22;36334;51.366;0.020;2022-12-17T15:27:14;5.10;99.90
31759;DHT22;36334;51.366;0.020;2022-12-17T15:30:01;5.20;99.90
31759;DHT22;36334;51.366;0.020;2022-12-17T15:32:47;5.00;99.90
31759;DHT22;36334;51.366;0.020;2022-12-17T15:35:34;5.00;99.90
31759;DHT22;36334;51.366;0.020;2022-12-17T15:38:21;5.00;99.90
31759;DHT22;36334;51.366;0.020;2022-12-17T15:41:10;4.90;99.90
31759;DHT22;36334;51.366;0.020;2022-12-17T15:44:14;4.80;99.90
31759;DHT22;36334;51.366;0.020;2022-12-17T15:47:03;4.90;99.90
31759;DHT22;36334;51.366;0.020;2022-12-17T15:49:49;4.70;99.90
31759;DHT22;36334;51.366;0.020;2022-12-17T15:52:38;4.60;99.90
31759;DHT22;36334;51.366;0.020;2022-12-17T15:55:24;4.60;99.90
31759;DHT22;36334;51.366;0.020;2022-12-17T15:58:11;4.50;99.90
31759;DHT22;36334;51.366;0.020;2022-12-17T16:00:57;4.40;99.90
31759;DHT22;36334;51.366;0.020;2022-12-17T16:03:43;4.30;99.90
31759;DHT22;36334;51.366;0.020;2022-12-17T16:06:29;4.20;99.90
31759;DHT22;36334;51.366;0.020;2022-12-17T16:09:15;4.10;99.90
31759;DHT22;36334;51.366;0.020;2022-12-17T16:12:05;4.00;99.90
31759;DHT22;36334;51.366;0.020;2022-12-17T16:14:55;3.80;99.90
31759;DHT22;36334;51.366;0.020;2022-12-17T16:17:41;3.80;99.90
31759;DHT22;36334;51.366;0.020;2022-12-17T16:20:27;3.70;99.90
31759;DHT22;36334;51.366;0.020;2022-12-17T16:23:14;3.60;99.90
31759;DHT22;36334;51.366;0.020;2022-12-17T16:26:02;3.50;99.90
31759;DHT22;36334;51.366;0.020;2022-12-17T16:28:49;3.40;99.90
31759;DHT22;36334;51.366;0.020;2022-12-17T16:31:35;3.30;99.90
31759;DHT22;36334;51.366;0.020;2022-12-17T16:34:22;3.50;99.90
31759;DHT22;36334;51.366;0.020;2022-12-17T16:37:08;3.30;99.90
31759;DHT22;36334;51.366;0.020;2022-12-17T16:39:54;3.30;99.90
31759;DHT22;36334;51.366;0.020;2022-12-17T16:42:45;3.00;99.90
31759;DHT22;36334;51.366;0.020;2022-12-17T16:45:31;2.90;99.90
31759;DHT22;36334;51.366;0.020;2022-12-17T16:48:18;2.80;99.90
31759;DHT22;36334;51.366;0.020;2022-12-17T16:51:15;2.80;99.90
31759;DHT22;36334;51.366;0.020;2022-12-17T16:54:16;2.70;99.90
31759;DHT22;36334;51.366;0.020;2022-12-17T16:57:02;2.70;99.90
31759;DHT22;36334;51.366;0.020;2022-12-17T16:59:51;2.60;99.90
31759;DHT22;36334;51.366;0.020;2022-12-17T17:02:37;2.50;99.90
31759;DHT22;36334;51.366;0.020;2022-12-17T17:05:23;2.50;99.90
31759;DHT22;36334;51.366;0.020;2022-12-17T17:08:09;2.40;99.90
31759;DHT22;36334;51.366;0.020;2022-12-17T17:10:55;2.40;99.90
31759;DHT22;36334;51.366;0.020;2022-12-17T17:13:42;2.40;99.90
31759;DHT22;36334;51.366;0.020;2022-12-17T17:16:28;2.40;99.90
31759;DHT22;36334;51.366;0.020;2022-12-17T17:19:15;2.30;99.90
31759;DHT22;36334;51.366;0.020;2022-12-17T17:22:02;2.30;99.90
31759;DHT22;36334;51.366;0.020;2022-12-17T17:24:48;2.30;99.90
31759;DHT22;36334;51.366;0.020;2022-12-17T17:27:38;2.20;99.90
31759;DHT22;36334;51.366;0.020;2022-12-17T17:30:24;2.20;99.90
31759;DHT22;36334;51.366;0.020;2022-12-17T17:33:10;2.60;99.90
31759;DHT22;36334;51.366;0.020;2022-12-17T17:36:15;2.10;99.90
31759;DHT22;36334;51.366;0.020;2022-12-17T17:39:02;2.10;99.90
31759;DHT22;36334;51.366;0.020;2022-12-17T17:41:48;2.00;99.90
31759;DHT22;36334;51.366;0.020;2022-12-17T17:44:35;1.90;99.90
31759;DHT22;36334;51.366;0.020;2022-12-17T17:47:21;1.80;99.90
31759;DHT22;36334;51.366;0.020;2022-12-17T17:50:08;1.80;99.90
31759;DHT22;36334;51.366;0.020;2022-12-17T17:52:55;1.70;99.90
31759;DHT22;36334;51.366;0.020;2022-12-17T17:55:41;1.60;99.90
31759;DHT22;36334;51.366;0.020;2022-12-17T17:58:29;1.60;99.90
31759;DHT22;36334;51.366;0.020;2022-12-17T18:01:21;1.50;99.90
31759;DHT22;36334;51.366;0.020;2022-12-17T18:04:13;1.50;99.90
31759;DHT22;36334;51.366;0.020;2022-12-17T18:07:00;1.40;99.90
31759;DHT22;36334;51.366;0.020;2022-12-17T18:10:07;1.40;99.90
31759;DHT22;36334;51.366;0.020;2022-12-17T18:12:55;1.30;99.90
31759;DHT22;36334;51.366;0.020;2022-12-17T18:16:01;1.30;99.90
31759;DHT22;36334;51.366;0.020;2022-12-17T18:18:47;1.20;99.90
31759;DHT22;36334;51.366;0.020;2022-12-17T18:21:34;1.10;99.90
31759;DHT22;36334;51.366;0.020;2022-12-17T18:24:22;1.10;99.90
31759;DHT22;36334;51.366;0.020;2022-12-17T18:27:08;1.50;99.90
31759;DHT22;36334;51.366;0.020;2022-12-17T18:29:54;1.10;99.90
31759;DHT22;36334;51.366;0.020;2022-12-17T18:32:40;1.00;99.90
31759;DHT22;36334;51.366;0.020;2022-12-17T18:35:27;1.00;99.90
31759;DHT22;36334;51.366;0.020;2022-12-17T18:38:15;1.30;99.90
31759;DHT22;36334;51.366;0.020;2022-12-17T18:41:07;0.90;99.90
31759;DHT22;36334;51.366;0.020;2022-12-17T18:44:15;0.90;99.90
31759;DHT22;36334;51.366;0.020;2022-12-17T18:47:01;0.90;99.90
31759;DHT22;36334;51.366;0.020;2022-12-17T18:49:48;0.80;99.90
31759;DHT22;36334;51.366;0.020;2022-12-17T18:52:34;0.90;99.90
31759;DHT22;36334;51.366;0.020;2022-12-17T18:55:20;0.90;99.90
31759;DHT22;36334;51.366;0.020;2022-12-17T18:58:07;1.00;99.90
31759;DHT22;36334;51.366;0.020;2022-12-17T19:00:54;1.00;99.90
31759;DHT22;36334;51.366;0.020;2022-12-17T19:03:40;1.10;99.90
31759;DHT22;36334;51.366;0.020;2022-12-17T19:06:26;1.10;99.90
31759;DHT22;36334;51.366;0.020;2022-12-17T19:09:18;1.20;99.90
31759;DHT22;36334;51.366;0.020;2022-12-17T19:12:07;1.20;99.90
31759;DHT22;36334;51.366;0.020;2022-12-17T19:14:54;1.20;99.90
31759;DHT22;36334;51.366;0.020;2022-12-17T19:17:40;1.40;99.90
31759;DHT22;36334;51.366;0.020;2022-12-17T19:20:27;1.30;99.90
31759;DHT22;36334;51.366;0.020;2022-12-17T19:23:13;1.20;99.90
31759;DHT22;36334;51.366;0.020;2022-12-17T19:26:11;1.30;99.90
31759;DHT22;36334;51.366;0.020;2022-12-17T19:28:58;1.40;99.90
31759;DHT22;36334;51.366;0.020;2022-12-17T19:31:45;1.40;99.90
31759;DHT22;36334;51.366;0.020;2022-12-17T19:34:31;1.50;99.90
31759;DHT22;36334;51.366;0.020;2022-12-17T19:37:20;1.40;99.90
31759;DHT22;36334;51.366;0.020;2022-12-17T19:40:07;1.50;99.90
31759;DHT22;36334;51.366;0.020;2022-12-17T19:42:56;1.40;99.90
31759;DHT22;36334;51.366;0.020;2022-12-17T19:45:42;1.40;99.90
31759;DHT22;36334;51.366;0.020;2022-12-17T19:48:30;1.40;99.90
31759;DHT22;36334;51.366;0.020;2022-12-17T19:51:18;1.40;99.90
31759;DHT22;36334;51.366;0.020;2022-12-17T19:54:04;1.40;99.90
31759;DHT22;36334;51.366;0.020;2022-12-17T19:56:53;1.40;99.90
31759;DHT22;36334;51.366;0.020;2022-12-17T19:59:40;1.40;99.90
31759;DHT22;36334;51.366;0.020;2022-12-17T20:02:26;1.40;99.90
31759;DHT22;36334;51.366;0.020;2022-12-17T20:05:17;1.40;99.90
31759;DHT22;36334;51.366;0.020;2022-12-17T20:08:03;1.40;99.90
31759;DHT22;36334;51.366;0.020;2022-12-17T20:10:50;1.30;99.90
31759;DHT22;36334;51.366;0.020;2022-12-17T20:13:36;1.30;99.90
31759;DHT22;36334;51.366;0.020;2022-12-17T20:16:22;1.30;99.90